createdAt,value
2024-05-09T00:00:43.563Z,75.07
2024-05-09T00:03:12.055Z,74.98
2024-05-09T00:05:41.539Z,74.99
2024-05-09T00:08:10.269Z,74.99
2024-05-09T00:10:39.501Z,75.07
2024-05-09T00:13:11.391Z,75.23
2024-05-09T00:15:39.285Z,75.09
2024-05-09T00:18:07.678Z,75.19
2024-05-09T00:20:39.146Z,75.16
2024-05-09T00:23:09.362Z,75.22
2024-05-09T00:25:36.974Z,75.23
2024-05-09T00:28:05.006Z,75.22
2024-05-09T00:30:36.720Z,75.42
2024-05-09T00:33:06.995Z,75.32
2024-05-09T00:35:35.723Z,75.35
2024-05-09T00:38:03.726Z,75.44
2024-05-09T00:40:39.590Z,75.41
2024-05-09T00:43:10.107Z,75.59
2024-05-09T00:45:40.123Z,75.68
2024-05-09T00:48:11.051Z,75.69
2024-05-09T00:50:42.686Z,75.63
2024-05-09T00:53:12.667Z,75.78
2024-05-09T00:55:40.815Z,75.69
2024-05-09T00:58:12.346Z,75.88
2024-05-09T01:00:43.079Z,75.81
2024-05-09T01:03:12.520Z,75.62
2024-05-09T01:05:42.410Z,75.69
2024-05-09T01:08:11.141Z,75.77
2024-05-09T01:10:39.118Z,75.72
2024-05-09T01:13:07.741Z,75.90
2024-05-09T01:15:37.018Z,75.71
2024-05-09T01:18:10.554Z,75.88
2024-05-09T01:20:42.368Z,76.12
2024-05-09T01:23:15.910Z,76.00
2024-05-09T01:25:45.295Z,76.03
2024-05-09T01:28:13.357Z,75.97
2024-05-09T01:30:40.622Z,76.11
2024-05-09T01:33:10.024Z,76.10
2024-05-09T01:35:41.359Z,76.13
2024-05-09T01:38:12.687Z,76.00
2024-05-09T01:40:43.224Z,76.14
2024-05-09T01:43:11.835Z,76.06
2024-05-09T01:45:40.081Z,76.09
2024-05-09T01:48:08.584Z,76.08
2024-05-09T01:50:40.261Z,76.40
2024-05-09T01:53:10.570Z,76.06
2024-05-09T01:55:38.570Z,76.21
2024-05-09T01:58:09.417Z,76.35
2024-05-09T02:00:40.910Z,76.40
2024-05-09T02:03:14.548Z,76.44
2024-05-09T02:05:45.452Z,76.42
2024-05-09T02:08:17.883Z,76.34
2024-05-09T02:10:46.750Z,76.37
2024-05-09T02:13:17.084Z,76.29
2024-05-09T02:15:44.752Z,76.34
2024-05-09T02:18:13.105Z,76.33
2024-05-09T02:20:43.286Z,76.36
2024-05-09T02:23:11.857Z,76.28
2024-05-09T02:25:39.885Z,76.45
2024-05-09T02:28:07.305Z,76.36
2024-05-09T02:30:40.679Z,76.51
2024-05-09T02:33:12.173Z,76.35
2024-05-09T02:35:42.401Z,76.45
2024-05-09T02:38:10.697Z,76.37
2024-05-09T02:40:39.582Z,76.38
2024-05-09T02:43:10.493Z,76.56
2024-05-09T02:45:41.204Z,76.47
2024-05-09T02:48:12.675Z,76.30
2024-05-09T02:50:41.124Z,76.40
2024-05-09T02:53:09.532Z,76.49
2024-05-09T02:55:37.336Z,76.61
2024-05-09T02:58:06.614Z,76.56
2024-05-09T03:00:39.320Z,76.57
2024-05-09T03:03:13.918Z,76.66
2024-05-09T03:05:43.157Z,76.51
2024-05-09T03:08:10.762Z,76.56
2024-05-09T03:10:39.241Z,76.43
2024-05-09T03:13:07.397Z,76.51
2024-05-09T03:15:34.628Z,76.58
2024-05-09T03:18:02.134Z,76.62
2024-05-09T03:20:34.938Z,76.67
2024-05-09T03:23:05.030Z,76.57
2024-05-09T03:25:33.060Z,76.82
2024-05-09T03:28:00.317Z,76.84
2024-05-09T03:30:38.686Z,76.83
2024-05-09T03:33:10.516Z,76.82
2024-05-09T03:35:40.735Z,76.93
2024-05-09T03:38:08.050Z,76.91
2024-05-09T03:40:35.540Z,76.64
2024-05-09T03:43:02.859Z,76.88
2024-05-09T03:45:30.000Z,76.87
2024-05-09T03:47:59.242Z,76.82
2024-05-09T03:50:33.619Z,76.79
2024-05-09T03:53:05.744Z,76.97
2024-05-09T03:55:33.032Z,76.86
2024-05-09T03:58:00.303Z,76.84
2024-05-09T04:00:35.585Z,76.62
2024-05-09T04:03:08.723Z,76.88
2024-05-09T04:05:39.853Z,76.96
2024-05-09T04:08:10.981Z,77.16
2024-05-09T04:10:38.808Z,77.04
2024-05-09T04:13:06.405Z,76.97
2024-05-09T04:15:33.616Z,77.23
2024-05-09T04:18:01.976Z,77.12
2024-05-09T04:20:37.796Z,77.42
2024-05-09T04:23:14.449Z,77.51
2024-05-09T04:25:44.574Z,77.42
2024-05-09T04:28:12.675Z,77.43
2024-05-09T04:30:41.509Z,77.63
2024-05-09T04:33:14.200Z,77.59
2024-05-09T04:35:43.703Z,77.66
2024-05-09T04:38:14.787Z,77.68
2024-05-09T04:40:42.884Z,77.58
2024-05-09T04:43:15.992Z,77.89
2024-05-09T04:45:43.560Z,77.84
2024-05-09T04:48:11.397Z,78.12
2024-05-09T04:50:39.816Z,78.16
2024-05-09T04:53:10.036Z,78.09
2024-05-09T04:55:41.142Z,78.10
2024-05-09T04:58:09.166Z,78.19
2024-05-09T05:00:38.786Z,78.38
2024-05-09T05:03:10.104Z,78.47
2024-05-09T05:05:41.150Z,78.67
2024-05-09T05:08:11.350Z,78.88
2024-05-09T05:10:41.096Z,79.01
2024-05-09T05:13:22.693Z,78.90
2024-05-09T05:15:53.147Z,78.95
2024-05-09T05:18:21.335Z,78.79
2024-05-09T05:20:48.792Z,78.93
2024-05-09T05:23:18.579Z,78.92
2024-05-09T05:25:50.975Z,79.11
2024-05-09T05:28:19.206Z,79.00
2024-05-09T05:30:46.809Z,78.91
2024-05-09T05:33:15.957Z,78.69
2024-05-09T05:35:43.893Z,78.68
2024-05-09T05:38:11.447Z,78.69
2024-05-09T05:40:40.422Z,78.79
2024-05-09T05:43:16.972Z,78.66
2024-05-09T05:45:44.164Z,78.23
2024-05-09T05:48:16.029Z,78.63
2024-05-09T05:50:43.612Z,78.28
2024-05-09T05:53:11.037Z,78.06
2024-05-09T05:55:40.193Z,79.17
2024-05-09T05:58:12.188Z,78.19
2024-05-09T06:00:41.379Z,78.53
2024-05-09T06:03:11.537Z,78.42
2024-05-09T06:05:46.546Z,78.08
2024-05-09T06:08:14.504Z,78.35
2024-05-09T06:10:42.476Z,78.14
2024-05-09T06:13:13.985Z,78.36
2024-05-09T06:15:42.342Z,77.21
2024-05-09T06:18:11.746Z,76.54
2024-05-09T06:20:42.352Z,75.73
2024-05-09T06:23:11.950Z,75.53
2024-05-09T06:25:39.407Z,74.70
2024-05-09T06:28:07.067Z,73.21
2024-05-09T06:30:40.667Z,72.26
2024-05-09T06:33:13.071Z,71.00
2024-05-09T06:35:43.207Z,70.72
2024-05-09T06:38:11.283Z,69.82
2024-05-09T06:40:41.978Z,68.20
2024-05-09T06:43:11.674Z,67.89
2024-05-09T06:45:41.557Z,66.52
2024-05-09T06:48:10.298Z,66.31
2024-05-09T06:50:39.408Z,67.69
2024-05-09T06:53:07.480Z,68.14
2024-05-09T06:55:35.913Z,64.79
2024-05-09T06:58:05.370Z,62.51
2024-05-09T07:00:38.831Z,61.50
2024-05-09T07:03:13.157Z,60.01
2024-05-09T07:05:42.538Z,56.85
2024-05-09T07:08:10.630Z,52.80
2024-05-09T07:10:38.410Z,57.23
2024-05-09T07:13:09.117Z,56.67
2024-05-09T07:15:36.305Z,55.22
2024-05-09T07:18:11.786Z,54.98
2024-05-09T07:20:40.588Z,52.96
2024-05-09T07:23:09.052Z,53.54
2024-05-09T07:25:36.883Z,51.81
2024-05-09T07:28:05.179Z,52.46
2024-05-09T07:30:34.478Z,51.59
2024-05-09T07:33:03.609Z,49.85
2024-05-09T07:35:33.718Z,48.00
2024-05-09T07:38:01.342Z,50.13
2024-05-09T07:40:35.099Z,48.30
2024-05-09T07:43:05.083Z,49.24
2024-05-09T07:52:32.589Z,44.56
2024-05-09T07:55:56.213Z,47.23
2024-05-09T07:58:27.366Z,48.18
2024-05-09T08:00:55.138Z,48.43
2024-05-09T08:03:22.679Z,46.16
2024-05-09T08:05:52.443Z,47.74
2024-05-09T08:08:20.104Z,47.49
2024-05-09T08:10:47.375Z,46.84
2024-05-09T08:13:14.827Z,45.11
2024-05-09T08:15:42.832Z,43.86
2024-05-09T08:18:11.153Z,45.58
2024-05-09T08:20:39.306Z,45.46
2024-05-09T08:23:10.819Z,43.89
2024-05-09T08:25:38.747Z,42.51
2024-05-09T08:28:06.854Z,44.54
2024-05-09T08:30:37.187Z,44.72
2024-05-09T08:33:07.124Z,43.07
2024-05-09T08:35:35.803Z,43.56
2024-05-09T08:38:04.582Z,41.31
2024-05-09T08:40:37.333Z,43.37
2024-05-09T08:43:12.505Z,43.46
2024-05-09T08:45:44.143Z,41.96
2024-05-09T08:48:15.284Z,38.23
2024-05-09T08:50:45.398Z,41.18
2024-05-09T08:53:15.363Z,36.83
2024-05-09T08:55:46.380Z,40.84
2024-05-09T08:58:17.128Z,40.84
2024-05-09T09:00:45.826Z,41.66
2024-05-09T09:03:17.301Z,40.31
2024-05-09T09:05:53.218Z,43.17
2024-05-09T09:08:21.202Z,42.04
2024-05-09T09:10:54.094Z,42.99
2024-05-09T09:13:21.429Z,44.33
2024-05-09T09:15:49.992Z,42.49
2024-05-09T09:18:18.277Z,40.74
2024-05-09T09:20:45.714Z,42.75
2024-05-09T09:23:13.070Z,40.58
2024-05-09T09:25:40.883Z,40.24
2024-05-09T09:28:10.775Z,41.65
2024-05-09T09:30:39.772Z,40.58
2024-05-09T09:33:09.378Z,41.19
2024-05-09T09:35:40.448Z,41.86
2024-05-09T09:38:10.523Z,41.55
2024-05-09T09:40:46.789Z,41.61
2024-05-09T09:43:22.575Z,42.45
2024-05-09T09:45:53.211Z,42.06
2024-05-09T09:48:22.887Z,43.03
2024-05-09T09:50:51.951Z,43.62
2024-05-09T09:53:20.130Z,42.98
2024-05-09T09:55:48.543Z,44.21
2024-05-09T09:58:17.861Z,44.46
2024-05-09T10:00:47.852Z,46.20
2024-05-09T10:03:15.144Z,46.71
2024-05-09T10:05:46.248Z,46.41
2024-05-09T10:08:17.670Z,47.52
2024-05-09T10:10:47.579Z,46.96
2024-05-09T10:13:15.475Z,47.89
2024-05-09T10:15:45.486Z,45.75
2024-05-09T10:18:15.706Z,46.17
2024-05-09T10:20:44.285Z,43.44
2024-05-09T10:23:25.705Z,42.03
2024-05-09T10:25:57.360Z,41.67
2024-05-09T10:28:27.915Z,41.94
2024-05-09T10:31:06.856Z,42.86
2024-05-09T10:33:45.362Z,42.21
2024-05-09T10:36:14.121Z,40.79
2024-05-09T10:38:43.136Z,39.46
2024-05-09T10:41:11.368Z,36.48
2024-05-09T10:43:43.502Z,37.53
2024-05-09T10:46:12.109Z,36.87
2024-05-09T10:48:43.358Z,38.17
2024-05-09T10:51:11.553Z,39.60
2024-05-09T10:53:42.954Z,41.28
2024-05-09T10:56:11.586Z,40.70
2024-05-09T10:58:39.111Z,38.02
2024-05-09T11:01:07.506Z,39.59
2024-05-09T11:03:36.191Z,37.79
2024-05-09T11:06:07.070Z,39.21
2024-05-09T11:08:36.826Z,40.52
2024-05-09T11:11:07.663Z,37.89
2024-05-09T11:13:37.395Z,36.58
2024-05-09T11:16:06.243Z,37.96
2024-05-09T11:18:37.813Z,37.55
2024-05-09T11:21:14.108Z,39.02
2024-05-09T11:23:41.547Z,37.94
2024-05-09T11:26:10.817Z,37.64
2024-05-09T11:28:38.205Z,39.07
2024-05-09T11:31:10.531Z,37.18
2024-05-09T11:33:39.519Z,39.22
2024-05-09T11:36:09.268Z,39.65
2024-05-09T11:38:38.935Z,40.02
2024-05-09T11:41:06.753Z,39.62
2024-05-09T11:43:34.005Z,40.02
2024-05-09T11:46:02.856Z,40.45
2024-05-09T11:48:31.234Z,40.37
2024-05-09T11:50:58.727Z,42.09
2024-05-09T11:53:25.895Z,42.62
2024-05-09T11:55:55.823Z,42.92
2024-05-09T11:58:23.651Z,42.91
2024-05-09T12:00:51.197Z,43.22
2024-05-09T12:03:18.583Z,43.11
2024-05-09T12:05:46.160Z,43.86
2024-05-09T12:08:14.197Z,44.91
2024-05-09T12:10:41.806Z,44.54
2024-05-09T12:13:11.697Z,43.81
2024-05-09T12:15:39.347Z,44.91
2024-05-09T12:18:08.220Z,45.63
2024-05-09T12:20:38.828Z,45.85
2024-05-09T12:23:10.106Z,45.22
2024-05-09T12:25:39.840Z,45.59
2024-05-09T12:28:08.393Z,45.63
2024-05-09T12:30:40.484Z,45.54
2024-05-09T12:33:11.265Z,44.75
2024-05-09T12:35:39.676Z,45.50
2024-05-09T12:38:07.142Z,45.75
2024-05-09T12:40:37.579Z,45.97
2024-05-09T12:43:07.441Z,46.21
2024-05-09T12:45:38.534Z,47.57
2024-05-09T12:48:11.339Z,47.25
2024-05-09T12:50:39.835Z,47.02
2024-05-09T12:53:07.329Z,47.52
2024-05-09T12:55:43.722Z,46.66
2024-05-09T12:58:17.134Z,47.34
2024-05-09T13:00:47.659Z,46.54
2024-05-09T13:03:15.400Z,46.54
2024-05-09T13:05:45.169Z,45.46
2024-05-09T13:08:13.575Z,46.36
2024-05-09T13:10:41.322Z,46.21
2024-05-09T13:13:09.746Z,46.91
2024-05-09T13:15:37.490Z,46.38
2024-05-09T13:18:08.550Z,46.01
2024-05-09T13:20:37.208Z,47.01
2024-05-09T13:23:07.593Z,46.84
2024-05-09T13:25:35.639Z,46.38
2024-05-09T13:28:03.601Z,45.29
2024-05-09T13:30:39.154Z,47.00
2024-05-09T13:33:13.598Z,46.52
2024-05-09T13:35:47.049Z,46.73
2024-05-09T13:38:18.551Z,46.67
2024-05-09T13:40:46.426Z,46.67
2024-05-09T13:43:14.267Z,46.62
2024-05-09T13:45:41.581Z,46.17
2024-05-09T13:48:11.730Z,46.16
2024-05-09T13:50:39.713Z,46.07
2024-05-09T13:53:08.288Z,47.10
2024-05-09T13:55:38.519Z,47.84
2024-05-09T13:58:06.546Z,47.86
2024-05-09T14:00:44.115Z,48.16
2024-05-09T14:03:20.101Z,47.80
2024-05-09T14:05:50.960Z,47.78
2024-05-09T14:08:19.864Z,47.80
2024-05-09T14:10:48.196Z,48.42
2024-05-09T14:13:16.000Z,48.61
2024-05-09T14:15:43.562Z,48.11
2024-05-09T14:18:13.575Z,48.64
2024-05-09T14:20:44.135Z,48.78
2024-05-09T14:23:11.436Z,49.28
2024-05-09T14:25:42.179Z,48.87
2024-05-09T14:28:11.319Z,48.45
2024-05-09T14:30:39.458Z,48.76
2024-05-09T14:33:08.765Z,48.62
2024-05-09T14:35:39.943Z,49.45
2024-05-09T14:38:09.993Z,49.74
2024-05-09T14:40:42.135Z,49.38
2024-05-09T14:43:13.128Z,49.08
2024-05-09T14:45:41.257Z,48.08
2024-05-09T14:48:09.589Z,49.54
2024-05-09T14:50:39.595Z,49.08
2024-05-09T14:53:11.921Z,50.44
2024-05-09T14:55:42.051Z,49.94
2024-05-09T14:58:12.664Z,50.20
2024-05-09T15:00:45.739Z,50.04
2024-05-09T15:03:17.023Z,49.47
2024-05-09T15:05:45.205Z,48.88
2024-05-09T15:08:17.530Z,47.69
2024-05-09T15:10:44.880Z,47.66
2024-05-09T15:13:14.379Z,48.60
2024-05-09T15:15:43.837Z,48.08
2024-05-09T15:18:11.387Z,48.81
2024-05-09T15:23:07.587Z,48.52
2024-05-09T15:25:37.394Z,47.98
2024-05-09T15:28:07.672Z,48.49
2024-05-09T15:30:35.568Z,47.72
2024-05-09T15:33:04.046Z,48.27
2024-05-09T15:35:31.786Z,47.94
2024-05-09T15:38:00.393Z,47.41
2024-05-09T15:40:36.133Z,47.36
2024-05-09T15:43:11.211Z,47.43
2024-05-09T15:45:41.450Z,48.06
2024-05-09T15:48:10.425Z,48.40
2024-05-09T15:50:41.042Z,48.91
2024-05-09T15:53:11.139Z,49.26
2024-05-09T15:55:39.013Z,49.22
2024-05-09T15:58:09.555Z,48.73
2024-05-09T16:00:41.049Z,48.66
2024-05-09T16:03:11.484Z,48.16
2024-05-09T16:05:40.602Z,49.44
2024-05-09T16:08:09.160Z,49.71
2024-05-09T16:10:37.655Z,50.00
2024-05-09T16:13:06.084Z,49.75
2024-05-09T16:15:35.892Z,49.49
2024-05-09T16:18:04.033Z,49.86
2024-05-09T16:20:38.962Z,50.77
2024-05-09T16:23:09.190Z,49.89
2024-05-09T16:25:37.616Z,50.21
2024-05-09T16:28:08.926Z,50.59
2024-05-09T16:30:40.514Z,50.44
2024-05-09T16:33:08.836Z,51.23
2024-05-09T16:35:37.393Z,50.79
2024-05-09T16:38:06.133Z,51.32
2024-05-09T16:40:38.226Z,51.52
2024-05-09T16:43:08.695Z,51.33
2024-05-09T16:45:36.624Z,51.50
2024-05-09T16:48:08.391Z,51.29
2024-05-09T16:50:36.699Z,51.01
2024-05-09T16:53:05.901Z,50.94
2024-05-09T16:55:34.381Z,51.26
2024-05-09T16:58:03.226Z,50.82
2024-05-09T17:00:39.055Z,51.27
2024-05-09T17:03:15.165Z,51.46
2024-05-09T17:05:45.388Z,52.11
2024-05-09T17:08:14.900Z,52.51
2024-05-09T17:10:42.438Z,52.89
2024-05-09T17:13:10.186Z,52.95
2024-05-09T17:15:37.949Z,52.73
2024-05-09T17:18:07.401Z,53.11
2024-05-09T17:20:37.936Z,52.94
2024-05-09T17:23:12.630Z,52.75
2024-05-09T17:25:40.882Z,53.58
2024-05-09T17:28:09.413Z,53.79
2024-05-09T17:30:39.054Z,53.81
2024-05-09T17:33:10.256Z,53.13
2024-05-09T17:35:41.461Z,54.29
2024-05-09T17:38:09.641Z,53.76
2024-05-09T17:40:38.509Z,53.92
2024-05-09T17:43:08.674Z,53.68
2024-05-09T17:45:38.547Z,53.81
2024-05-09T17:48:08.039Z,53.24
2024-05-09T17:50:37.360Z,54.04
2024-05-09T17:53:09.018Z,54.59
2024-05-09T17:55:36.674Z,54.03
2024-05-09T17:58:05.510Z,53.83
2024-05-09T18:00:38.952Z,53.88
2024-05-09T18:03:13.852Z,54.08
2024-05-09T18:05:43.431Z,54.69
2024-05-09T18:08:14.305Z,55.01
2024-05-09T18:10:42.152Z,55.06
2024-05-09T18:13:10.634Z,55.20
2024-05-09T18:15:39.047Z,55.23
2024-05-09T18:18:07.552Z,55.47
2024-05-09T18:20:42.653Z,55.70
2024-05-09T18:23:18.050Z,56.31
2024-05-09T18:25:47.465Z,56.22
2024-05-09T18:28:17.149Z,56.32
2024-05-09T18:30:44.873Z,57.24
2024-05-09T18:33:12.858Z,57.13
2024-05-09T18:35:42.492Z,57.30
2024-05-09T18:38:10.124Z,57.37
2024-05-09T18:40:41.888Z,57.94
2024-05-09T18:43:11.048Z,57.87
2024-05-09T18:45:39.022Z,57.60
2024-05-09T18:48:09.698Z,58.22
2024-05-09T18:50:40.350Z,58.30
2024-05-09T18:53:11.735Z,59.07
2024-05-09T18:55:43.030Z,58.30
2024-05-09T18:58:10.595Z,58.71
2024-05-09T19:00:40.385Z,59.08
2024-05-09T19:03:12.846Z,58.86
2024-05-09T19:05:42.434Z,59.22
2024-05-09T19:08:11.153Z,59.50
2024-05-09T19:10:39.596Z,59.71
2024-05-09T19:13:12.574Z,59.62
2024-05-09T19:15:42.907Z,59.73
2024-05-09T19:18:12.465Z,60.32
2024-05-09T19:20:40.252Z,59.69
2024-05-09T19:23:07.797Z,60.00
2024-05-09T19:25:36.220Z,60.32
2024-05-09T19:28:05.668Z,60.20
2024-05-09T19:30:40.317Z,59.93
2024-05-09T19:33:11.870Z,59.97
2024-05-09T19:35:40.585Z,60.03
2024-05-09T19:38:08.181Z,60.58
2024-05-09T19:40:36.024Z,60.77
2024-05-09T19:43:05.121Z,60.60
2024-05-09T19:45:36.504Z,61.23
2024-05-09T19:48:06.328Z,61.11
2024-05-09T19:50:41.485Z,61.35
2024-05-09T19:53:12.142Z,61.23
2024-05-09T19:55:40.351Z,61.39
2024-05-09T19:58:09.405Z,61.89
2024-05-09T20:00:41.872Z,62.06
2024-05-09T20:03:12.170Z,62.23
2024-05-09T20:05:40.134Z,62.69
2024-05-09T20:08:08.179Z,62.34
2024-05-09T20:10:36.565Z,62.72
2024-05-09T20:13:06.699Z,62.65
2024-05-09T20:15:36.636Z,62.86
2024-05-09T20:18:07.514Z,63.43
2024-05-09T20:20:39.595Z,63.26
2024-05-09T20:23:10.112Z,63.32
2024-05-09T20:25:37.688Z,63.51
2024-05-09T20:28:08.600Z,63.48
2024-05-09T20:30:38.135Z,63.77
2024-05-09T20:33:09.251Z,63.51
2024-05-09T20:35:38.314Z,63.93
2024-05-09T20:38:05.700Z,63.93
2024-05-09T20:40:38.001Z,64.21
2024-05-09T20:43:07.794Z,64.16
2024-05-09T20:45:39.011Z,64.27
2024-05-09T20:48:10.105Z,64.47
2024-05-09T20:50:40.868Z,64.50
2024-05-09T20:53:11.864Z,64.97
2024-05-09T20:55:40.137Z,64.71
2024-05-09T20:58:07.833Z,64.72
2024-05-09T21:00:40.036Z,64.90
2024-05-09T21:03:16.145Z,65.35
2024-05-09T21:05:44.701Z,65.14
2024-05-09T21:08:12.429Z,65.72
2024-05-09T21:10:39.711Z,65.78
2024-05-09T21:13:07.480Z,65.90
2024-05-09T21:15:35.591Z,65.95
2024-05-09T21:18:04.057Z,66.49
2024-05-09T21:20:34.864Z,66.40
2024-05-09T21:23:03.284Z,66.34
2024-05-09T21:25:31.405Z,66.62
2024-05-09T21:27:58.805Z,66.95
2024-05-09T21:30:33.088Z,66.81
2024-05-09T21:33:09.775Z,66.75
2024-05-09T21:35:41.685Z,67.16
2024-05-09T21:38:08.948Z,67.04
2024-05-09T21:40:37.885Z,66.97
2024-05-09T21:43:07.504Z,67.31
2024-05-09T21:45:35.715Z,67.45
2024-05-09T21:48:03.635Z,67.46
2024-05-09T21:50:37.145Z,67.65
2024-05-09T21:53:11.918Z,67.52
2024-05-09T21:55:39.577Z,67.94
2024-05-09T21:58:06.966Z,68.22
2024-05-09T22:00:38.043Z,68.02
2024-05-09T22:03:07.497Z,68.39
2024-05-09T22:05:36.194Z,68.44
2024-05-09T22:08:04.052Z,68.55
2024-05-09T22:10:36.008Z,68.62
2024-05-09T22:13:05.525Z,68.84
2024-05-09T22:15:35.640Z,68.77
2024-05-09T22:18:04.423Z,68.83
2024-05-09T22:20:37.138Z,69.17
2024-05-09T22:23:06.526Z,69.16
2024-05-09T22:25:38.545Z,69.20
2024-05-09T22:28:07.149Z,69.35
2024-05-09T22:30:38.285Z,69.15
2024-05-09T22:33:09.168Z,69.47
2024-05-09T22:35:38.869Z,69.42
2024-05-09T22:38:06.437Z,69.30
2024-05-09T22:40:46.878Z,69.39
2024-05-09T22:43:19.009Z,69.30
2024-05-09T22:45:46.971Z,69.28
2024-05-09T22:48:14.559Z,69.58
2024-05-09T22:50:41.956Z,69.68
2024-05-09T22:53:09.315Z,69.90
2024-05-09T22:55:38.970Z,69.90
2024-05-09T22:58:06.472Z,69.72
2024-05-09T23:00:33.981Z,69.74
2024-05-09T23:03:02.194Z,70.17
2024-05-09T23:05:32.501Z,70.21
2024-05-09T23:08:01.137Z,70.13
2024-05-09T23:10:35.456Z,70.23
2024-05-09T23:13:08.214Z,70.25
2024-05-09T23:15:37.808Z,70.10
2024-05-09T23:18:06.414Z,70.21
2024-05-09T23:20:38.150Z,70.60
2024-05-09T23:23:07.394Z,70.54
2024-05-09T23:25:35.063Z,70.60
2024-05-09T23:28:02.896Z,70.28
2024-05-09T23:30:37.912Z,70.68
2024-05-09T23:33:09.234Z,70.63
2024-05-09T23:35:36.621Z,70.51
2024-05-09T23:38:04.520Z,70.79
2024-05-09T23:43:02.390Z,71.00
2024-05-09T23:45:32.119Z,71.08
2024-05-09T23:47:59.871Z,70.91
2024-05-09T23:50:34.244Z,71.02
2024-05-09T23:53:05.828Z,71.06
2024-05-09T23:55:33.341Z,71.09
2024-05-09T23:58:01.045Z,71.04
